Terminal Aerodrome Forecast
Issued by NWS Jackson, MS

Home | Current Version | Previous Version | Text Only | Print | Product List | Glossary On
Versions: 1 2 3 4 5 6 7 8 9 10 11 12
000
FTUS44 KJAN 011120
TAFGLH
TAF
KGLH 011120Z 0112/0212 24006KT P6SM SCT006
     FM011500 24010KT P6SM SCT025
     FM011700 24008KT P6SM VCSH BKN050
     FM012000 27007KT P6SM VCTS OVC050CB
     FM020200 19004KT P6SM OVC100=

USA.gov is the U.S. government's official web portal to all federal, state and local government web resources and services.